createdAt,value
2022-10-13T00:01:43.655Z,72.93
2022-10-13T00:04:12.808Z,72.82
2022-10-13T00:06:43.339Z,71.85
2022-10-13T00:09:12.609Z,72.13
2022-10-13T00:11:41.710Z,72.84
2022-10-13T00:14:10.805Z,73.07
2022-10-13T00:16:40.553Z,73.02
2022-10-13T00:19:14.195Z,72.94
2022-10-13T00:21:45.659Z,72.69
2022-10-13T00:24:14.913Z,72.37
2022-10-13T00:26:44.096Z,72.36
2022-10-13T00:29:19.297Z,72.48
2022-10-13T00:31:48.257Z,72.92
2022-10-13T00:34:17.618Z,72.82
2022-10-13T00:36:48.404Z,72.91
2022-10-13T00:39:17.536Z,72.86
2022-10-13T00:41:47.296Z,72.48
2022-10-13T00:44:50.567Z,72.07
2022-10-13T00:47:20.889Z,72.74
2022-10-13T00:49:50.904Z,72.81
2022-10-13T00:52:23.035Z,73.26
2022-10-13T00:54:53.006Z,73.37
2022-10-13T00:57:23.801Z,73.28
2022-10-13T00:59:53.528Z,73.67
2022-10-13T01:02:23.967Z,74.51
2022-10-13T01:04:56.943Z,74.91
2022-10-13T01:07:27.945Z,73.85
2022-10-13T01:09:57.489Z,73.27
2022-10-13T01:12:38.872Z,73.40
2022-10-13T01:15:17.593Z,73.91
2022-10-13T01:17:59.275Z,73.63
2022-10-13T01:21:07.422Z,72.78
2022-10-13T01:24:05.660Z,73.34
2022-10-13T01:27:06.438Z,72.81
2022-10-13T01:30:04.420Z,72.76
2022-10-13T01:32:58.334Z,73.34
2022-10-13T01:35:40.069Z,73.23
2022-10-13T01:38:16.736Z,72.65
2022-10-13T01:40:54.003Z,72.58
2022-10-13T01:43:28.669Z,73.53
2022-10-13T01:46:03.779Z,73.91
2022-10-13T01:48:34.087Z,74.03
2022-10-13T01:51:03.616Z,73.73
2022-10-13T01:53:33.093Z,73.79
2022-10-13T01:56:02.853Z,73.37
2022-10-13T01:58:35.973Z,72.81
2022-10-13T02:01:39.405Z,73.12
2022-10-13T02:04:22.045Z,72.53
2022-10-13T02:06:59.183Z,72.49
2022-10-13T02:09:36.263Z,72.92
2022-10-13T02:12:13.598Z,72.48
2022-10-13T02:14:44.686Z,72.28
2022-10-13T02:17:16.102Z,72.55
2022-10-13T02:19:47.705Z,72.92
2022-10-13T02:22:18.074Z,72.80
2022-10-13T02:24:47.483Z,73.35
2022-10-13T02:27:19.266Z,73.24
2022-10-13T02:29:53.303Z,73.29
2022-10-13T02:36:50.323Z,73.57
2022-10-13T02:39:19.475Z,73.30
2022-10-13T02:41:48.682Z,73.16
2022-10-13T02:44:17.979Z,72.37
2022-10-13T02:46:47.055Z,72.88
2022-10-13T02:49:16.116Z,72.82
2022-10-13T02:51:45.378Z,72.40
2022-10-13T02:54:15.853Z,73.80
2022-10-13T02:56:45.018Z,73.44
2022-10-13T02:59:14.216Z,73.16
2022-10-13T03:01:44.623Z,73.57
2022-10-13T03:04:13.770Z,73.26
2022-10-13T03:06:43.217Z,73.53
2022-10-13T03:09:14.457Z,73.40
2022-10-13T03:11:44.168Z,73.37
2022-10-13T03:14:13.295Z,73.88
2022-10-13T03:16:42.767Z,74.03
2022-10-13T03:19:12.690Z,73.62
2022-10-13T03:21:41.938Z,73.06
2022-10-13T03:24:11.044Z,73.50
2022-10-13T03:26:41.695Z,73.60
2022-10-13T03:29:14.653Z,73.81
2022-10-13T03:31:44.317Z,73.31
2022-10-13T03:34:14.322Z,73.67
2022-10-13T03:36:43.518Z,73.99
2022-10-13T03:39:13.375Z,73.14
2022-10-13T03:41:44.147Z,73.12
2022-10-13T03:44:14.433Z,73.87
2022-10-13T03:46:43.619Z,74.02
2022-10-13T03:49:13.539Z,74.09
2022-10-13T03:51:42.889Z,74.09
2022-10-13T03:54:13.381Z,74.07
2022-10-13T03:56:44.043Z,74.06
2022-10-13T03:59:16.644Z,73.97
2022-10-13T04:01:45.715Z,74.22
2022-10-13T04:04:15.241Z,74.23
2022-10-13T04:06:45.505Z,73.51
2022-10-13T04:09:14.747Z,73.32
2022-10-13T04:11:45.521Z,73.97
2022-10-13T04:14:14.682Z,73.91
2022-10-13T04:16:43.729Z,73.71
2022-10-13T04:19:14.513Z,73.60
2022-10-13T04:21:44.362Z,74.41
2022-10-13T04:24:14.919Z,74.97
2022-10-13T04:26:46.381Z,74.86
2022-10-13T04:29:15.500Z,74.35
2022-10-13T04:31:44.620Z,74.39
2022-10-13T04:34:13.983Z,74.21
2022-10-13T04:36:43.280Z,74.59
2022-10-13T04:39:12.484Z,74.09
2022-10-13T04:41:41.655Z,74.09
2022-10-13T04:44:12.455Z,74.86
2022-10-13T04:46:41.529Z,74.78
2022-10-13T04:49:10.895Z,74.22
2022-10-13T04:51:40.568Z,73.90
2022-10-13T04:54:10.166Z,73.60
2022-10-13T04:56:39.260Z,73.59
2022-10-13T04:59:08.455Z,73.59
2022-10-13T05:01:39.639Z,72.93
2022-10-13T05:04:11.750Z,72.80
2022-10-13T05:07:12.395Z,72.92
2022-10-13T05:09:32.598Z,73.11
2022-10-13T05:12:01.894Z,72.91
2022-10-13T05:14:31.181Z,73.11
2022-10-13T05:17:03.992Z,72.99
2022-10-13T05:19:33.058Z,73.83
2022-10-13T05:22:02.377Z,73.56
2022-10-13T05:24:36.678Z,74.02
2022-10-13T05:27:07.240Z,74.18
2022-10-13T05:29:36.793Z,74.54
2022-10-13T05:32:08.302Z,74.54
2022-10-13T05:34:37.347Z,74.79
2022-10-13T05:37:06.526Z,74.51
2022-10-13T05:39:35.954Z,74.69
2022-10-13T05:42:05.409Z,74.28
2022-10-13T05:44:34.472Z,74.47
2022-10-13T05:47:07.496Z,74.18
2022-10-13T05:49:39.833Z,74.22
2022-10-13T05:52:12.277Z,74.82
2022-10-13T05:54:44.428Z,74.48
2022-10-13T05:57:17.672Z,75.08
2022-10-13T05:59:50.535Z,75.19
2022-10-13T06:02:24.231Z,75.17
2022-10-13T06:04:58.530Z,75.66
2022-10-13T06:07:27.864Z,75.70
2022-10-13T06:09:57.702Z,75.64
2022-10-13T06:12:27.167Z,75.16
2022-10-13T06:14:56.484Z,75.24
2022-10-13T06:17:25.540Z,75.81
2022-10-13T06:19:56.187Z,75.68
2022-10-13T06:22:25.372Z,76.15
2022-10-13T06:24:54.479Z,75.88
2022-10-13T06:27:23.781Z,75.52
2022-10-13T06:29:55.829Z,75.38
2022-10-13T06:32:25.259Z,75.82
2022-10-13T06:34:55.658Z,75.32
2022-10-13T06:37:27.542Z,75.14
2022-10-13T06:39:56.973Z,75.58
2022-10-13T06:42:26.185Z,74.52
2022-10-13T06:45:11.553Z,74.30
2022-10-13T06:47:42.977Z,73.72
2022-10-13T06:50:14.036Z,73.34
2022-10-13T06:52:43.626Z,73.60
2022-10-13T06:55:13.850Z,72.77
2022-10-13T06:57:43.045Z,72.49
2022-10-13T07:00:13.559Z,72.24
2022-10-13T07:02:43.217Z,72.23
2022-10-13T07:05:13.718Z,72.21
2022-10-13T07:07:44.221Z,71.30
2022-10-13T07:10:13.341Z,71.33
2022-10-13T07:12:43.027Z,71.55
2022-10-13T07:15:12.744Z,69.98
2022-10-13T07:17:41.838Z,69.73
2022-10-13T07:20:13.594Z,69.11
2022-10-13T07:22:42.683Z,69.01
2022-10-13T07:25:12.034Z,68.64
2022-10-13T07:27:42.325Z,68.06
2022-10-13T07:30:12.203Z,67.70
2022-10-13T07:32:42.163Z,67.09
2022-10-13T07:35:13.632Z,65.94
2022-10-13T07:37:42.797Z,66.00
2022-10-13T07:40:12.978Z,65.30
2022-10-13T07:42:42.194Z,64.90
2022-10-13T07:45:12.409Z,65.48
2022-10-13T07:47:41.386Z,64.85
2022-10-13T07:50:11.954Z,64.43
2022-10-13T07:52:42.467Z,64.79
2022-10-13T07:55:14.351Z,64.16
2022-10-13T07:57:43.424Z,63.65
2022-10-13T08:00:13.942Z,63.10
2022-10-13T08:02:43.256Z,62.93
2022-10-13T08:05:12.762Z,63.10
2022-10-13T08:07:43.185Z,61.60
2022-10-13T08:10:12.884Z,61.54
2022-10-13T08:12:42.009Z,62.87
2022-10-13T08:15:12.098Z,60.55
2022-10-13T08:17:41.839Z,61.10
2022-10-13T08:20:11.978Z,59.95
2022-10-13T08:22:42.482Z,59.19
2022-10-13T08:25:12.490Z,58.14
2022-10-13T08:27:51.101Z,57.82
2022-10-13T08:30:21.595Z,58.52
2022-10-13T08:32:50.709Z,58.59
2022-10-13T08:35:19.743Z,58.01
2022-10-13T08:37:50.346Z,55.97
2022-10-13T08:40:23.079Z,56.05
2022-10-13T08:42:58.007Z,55.64
2022-10-13T08:45:47.159Z,55.63
2022-10-13T08:48:19.758Z,55.14
2022-10-13T08:50:52.816Z,55.74
2022-10-13T08:53:29.629Z,55.01
2022-10-13T08:56:01.981Z,54.94
2022-10-13T08:58:34.759Z,54.35
2022-10-13T09:01:16.064Z,54.42
2022-10-13T09:03:51.180Z,54.17
2022-10-13T09:06:28.334Z,54.53
2022-10-13T09:09:00.716Z,54.02
2022-10-13T09:11:33.936Z,53.50
2022-10-13T09:14:06.022Z,53.27
2022-10-13T09:16:38.344Z,52.58
2022-10-13T09:19:24.446Z,52.79
2022-10-13T09:21:55.862Z,51.23
2022-10-13T09:24:28.464Z,50.37
2022-10-13T09:27:08.291Z,49.47
2022-10-13T09:29:42.550Z,48.77
2022-10-13T09:32:20.645Z,49.97
2022-10-13T09:34:51.683Z,49.22
2022-10-13T09:37:22.943Z,48.94
2022-10-13T09:40:13.973Z,49.56
2022-10-13T09:42:43.049Z,48.95
2022-10-13T09:45:16.578Z,49.13
2022-10-13T09:47:52.877Z,47.02
2022-10-13T09:50:25.777Z,45.67
2022-10-13T09:53:10.941Z,45.48
2022-10-13T09:55:41.762Z,46.57
2022-10-13T09:58:17.101Z,45.02
2022-10-13T10:00:47.552Z,43.38
2022-10-13T10:03:22.546Z,42.93
2022-10-13T10:05:53.802Z,42.60
2022-10-13T10:08:33.700Z,43.62
2022-10-13T10:11:15.095Z,41.60
2022-10-13T10:13:44.231Z,39.00
2022-10-13T10:16:21.114Z,37.80
2022-10-13T10:18:58.637Z,35.63
2022-10-13T10:21:36.239Z,35.96
2022-10-13T10:24:17.686Z,34.59
2022-10-13T10:26:56.316Z,33.71
2022-10-13T10:29:35.490Z,34.59
2022-10-13T10:32:22.873Z,31.21
2022-10-13T10:34:58.304Z,32.50
2022-10-13T10:37:44.529Z,31.67
2022-10-13T10:40:26.499Z,32.32
2022-10-13T10:43:20.052Z,31.73
2022-10-13T10:45:49.760Z,30.17
2022-10-13T10:48:24.268Z,30.06
2022-10-13T10:50:54.627Z,31.19
2022-10-13T10:53:33.023Z,29.13
2022-10-13T10:56:10.660Z,29.57
2022-10-13T10:58:48.226Z,28.92
2022-10-13T11:01:32.846Z,29.65
2022-10-13T11:04:39.684Z,28.83
2022-10-13T11:07:13.642Z,31.69
2022-10-13T11:10:01.142Z,32.58
2022-10-13T11:12:49.696Z,29.53
2022-10-13T11:15:25.692Z,28.54
2022-10-13T11:17:54.912Z,29.41
2022-10-13T11:20:58.454Z,30.56
2022-10-13T11:23:35.591Z,30.14
2022-10-13T11:26:29.913Z,29.23
2022-10-13T11:28:59.942Z,29.59
2022-10-13T11:31:49.955Z,27.77
2022-10-13T11:34:31.120Z,28.45
2022-10-13T11:37:03.211Z,28.42
2022-10-13T11:40:02.223Z,27.47
2022-10-13T11:43:11.244Z,27.54
2022-10-13T11:46:21.338Z,27.89
2022-10-13T11:49:23.991Z,25.50
2022-10-13T11:52:20.387Z,29.04
2022-10-13T11:54:55.650Z,28.56
2022-10-13T11:57:25.450Z,29.92
2022-10-13T11:59:56.551Z,28.13
2022-10-13T12:02:31.665Z,28.99
2022-10-13T12:05:09.558Z,28.80
2022-10-13T12:07:42.986Z,26.73
2022-10-13T12:10:22.038Z,25.63
2022-10-13T12:12:51.869Z,25.69
2022-10-13T12:15:36.354Z,25.99
2022-10-13T12:18:22.533Z,25.45
2022-10-13T12:20:58.208Z,24.62
2022-10-13T12:23:28.012Z,25.24
2022-10-13T12:26:00.322Z,26.94
2022-10-13T12:28:32.015Z,25.41
2022-10-13T12:31:01.997Z,26.09
2022-10-13T12:33:33.003Z,24.59
2022-10-13T12:36:20.477Z,23.03
2022-10-13T12:38:52.696Z,25.87
2022-10-13T12:41:27.440Z,24.49
2022-10-13T12:43:59.902Z,25.69
2022-10-13T12:46:38.290Z,27.47
2022-10-13T12:49:07.668Z,28.73
2022-10-13T12:51:39.571Z,26.48
2022-10-13T12:54:10.697Z,25.87
2022-10-13T12:56:44.694Z,26.85
2022-10-13T12:59:16.854Z,25.66
2022-10-13T13:02:01.108Z,26.56
2022-10-13T13:04:43.885Z,29.20
2022-10-13T13:07:35.051Z,26.18
2022-10-13T13:10:16.250Z,26.96
2022-10-13T13:12:49.221Z,29.17
2022-10-13T13:15:36.650Z,26.37
2022-10-13T13:18:39.387Z,25.45
2022-10-13T13:21:10.028Z,25.75
2022-10-13T13:23:51.219Z,26.63
2022-10-13T13:26:24.503Z,28.66
2022-10-13T13:28:55.720Z,28.18
2022-10-13T13:31:26.877Z,29.10
2022-10-13T13:33:56.233Z,27.35
2022-10-13T13:36:26.983Z,26.68
2022-10-13T13:38:57.462Z,27.49
2022-10-13T13:41:30.933Z,26.82
2022-10-13T13:44:00.690Z,29.04
2022-10-13T13:46:32.173Z,28.64
2022-10-13T13:49:02.270Z,27.64
2022-10-13T13:51:31.795Z,27.24
2022-10-13T13:54:02.449Z,27.14
2022-10-13T13:56:31.841Z,29.29
2022-10-13T13:59:01.040Z,28.12
2022-10-13T14:01:32.338Z,27.81
2022-10-13T14:04:03.105Z,30.23
2022-10-13T14:06:32.363Z,29.96
2022-10-13T14:09:04.849Z,32.23
2022-10-13T14:11:34.552Z,30.21
2022-10-13T14:14:03.635Z,31.47
2022-10-13T14:16:32.778Z,32.40
2022-10-13T14:19:05.758Z,33.46
2022-10-13T14:21:36.211Z,34.88
2022-10-13T14:24:14.265Z,32.67
2022-10-13T14:26:43.295Z,33.77
2022-10-13T14:29:12.388Z,36.13
2022-10-13T14:31:41.812Z,37.98
2022-10-13T14:34:11.066Z,41.77
2022-10-13T14:36:40.634Z,42.00
2022-10-13T14:39:10.002Z,43.84
2022-10-13T14:41:40.549Z,44.39
2022-10-13T14:44:12.159Z,45.81
2022-10-13T14:46:42.412Z,47.36
2022-10-13T14:49:12.414Z,47.30
2022-10-13T14:51:44.903Z,48.56
2022-10-13T14:54:13.914Z,48.82
2022-10-13T14:56:45.521Z,49.56
2022-10-13T14:59:14.775Z,48.40
2022-10-13T15:01:45.374Z,48.82
2022-10-13T15:04:14.561Z,49.04
2022-10-13T15:06:43.803Z,49.63
2022-10-13T15:09:13.166Z,50.52
2022-10-13T15:11:46.202Z,51.82
2022-10-13T15:14:15.494Z,51.11
2022-10-13T15:16:44.510Z,50.72
2022-10-13T15:19:13.819Z,51.54
2022-10-13T15:21:43.068Z,52.89
2022-10-13T15:24:13.064Z,52.56
2022-10-13T15:26:46.335Z,51.87
2022-10-13T15:29:15.345Z,52.18
2022-10-13T15:31:44.279Z,53.63
2022-10-13T15:34:13.736Z,53.23
2022-10-13T15:36:42.820Z,52.21
2022-10-13T15:39:12.828Z,52.60
2022-10-13T15:41:42.540Z,52.83
2022-10-13T15:44:13.086Z,55.26
2022-10-13T15:47:05.593Z,53.76
2022-10-13T15:49:31.504Z,54.57
2022-10-13T15:52:00.700Z,54.52
2022-10-13T15:54:30.334Z,55.67
2022-10-13T15:56:59.353Z,56.43
2022-10-13T15:59:30.217Z,55.51
2022-10-13T16:01:59.559Z,55.49
2022-10-13T16:04:30.446Z,54.70
2022-10-13T16:07:02.768Z,55.99
2022-10-13T16:09:32.886Z,56.25
2022-10-13T16:12:02.203Z,56.50
2022-10-13T16:14:32.866Z,56.20
2022-10-13T16:17:02.271Z,56.91
2022-10-13T16:19:31.438Z,57.26
2022-10-13T16:22:00.946Z,56.85
2022-10-13T16:24:30.937Z,58.39
2022-10-13T16:27:00.244Z,57.61
2022-10-13T16:29:31.079Z,58.66
2022-10-13T16:32:01.320Z,58.72
2022-10-13T16:34:30.457Z,59.55
2022-10-13T16:36:59.843Z,59.04
2022-10-13T16:39:29.175Z,59.94
2022-10-13T16:41:58.634Z,57.93
2022-10-13T16:44:27.811Z,60.16
2022-10-13T16:47:00.623Z,58.99
2022-10-13T16:49:29.787Z,58.80
2022-10-13T16:51:59.159Z,59.37
2022-10-13T16:54:28.436Z,59.72
2022-10-13T16:56:57.778Z,59.61
2022-10-13T16:59:28.853Z,59.59
2022-10-13T17:02:00.679Z,59.01
2022-10-13T17:04:31.494Z,58.75
2022-10-13T17:07:00.998Z,59.41
2022-10-13T17:09:30.061Z,59.85
2022-10-13T17:12:00.616Z,59.77
2022-10-13T17:14:29.872Z,60.02
2022-10-13T17:17:00.578Z,61.06
2022-10-13T17:19:29.577Z,60.45
2022-10-13T17:21:58.841Z,61.57
2022-10-13T17:24:29.917Z,61.98
2022-10-13T17:26:59.274Z,62.57
2022-10-13T17:29:28.520Z,62.45
2022-10-13T17:32:01.450Z,63.35
2022-10-13T17:34:30.640Z,62.83
2022-10-13T17:37:02.062Z,62.36
2022-10-13T17:39:31.266Z,64.14
2022-10-13T17:42:00.580Z,62.55
2022-10-13T17:44:29.828Z,62.62
2022-10-13T17:47:00.593Z,63.79
2022-10-13T17:49:30.838Z,63.44
2022-10-13T17:52:00.360Z,64.22
2022-10-13T17:54:31.961Z,64.21
2022-10-13T17:57:01.571Z,63.06
2022-10-13T17:59:30.794Z,61.41
2022-10-13T18:02:10.278Z,61.18
2022-10-13T18:04:39.707Z,61.28
2022-10-13T18:07:08.909Z,60.41
2022-10-13T18:09:38.112Z,60.65
2022-10-13T18:12:07.655Z,60.99
2022-10-13T18:14:37.527Z,61.22
2022-10-13T18:17:08.050Z,61.47
2022-10-13T18:19:40.290Z,61.42
2022-10-13T18:22:09.840Z,62.01
2022-10-13T18:24:39.511Z,61.62
2022-10-13T18:27:08.640Z,62.06
2022-10-13T18:29:39.932Z,62.56
2022-10-13T18:32:11.636Z,62.74
2022-10-13T18:34:41.064Z,63.52
2022-10-13T18:37:10.748Z,63.74
2022-10-13T18:39:40.061Z,64.62
2022-10-13T18:42:10.473Z,64.25
2022-10-13T18:44:39.767Z,65.10
2022-10-13T18:47:10.217Z,66.20
2022-10-13T18:49:39.822Z,66.79
2022-10-13T18:52:09.428Z,67.18
2022-10-13T18:54:41.627Z,66.52
2022-10-13T18:57:11.014Z,67.36
2022-10-13T18:59:40.502Z,67.58
2022-10-13T19:02:14.557Z,67.21
2022-10-13T19:04:43.734Z,66.42
2022-10-13T19:07:13.011Z,66.58
2022-10-13T19:09:42.218Z,66.69
2022-10-13T19:12:12.873Z,67.62
2022-10-13T19:14:42.071Z,67.02
2022-10-13T19:17:12.550Z,67.26
2022-10-13T19:19:42.980Z,68.11
2022-10-13T19:22:12.107Z,69.08
2022-10-13T19:24:41.597Z,69.36
2022-10-13T19:27:13.247Z,69.55
2022-10-13T19:29:43.990Z,69.23
2022-10-13T19:32:14.613Z,70.01
2022-10-13T19:34:43.897Z,69.96
2022-10-13T19:37:16.439Z,70.14
2022-10-13T19:39:46.334Z,70.93
2022-10-13T19:42:16.241Z,70.38
2022-10-13T19:44:47.131Z,71.34
2022-10-13T19:47:17.702Z,70.42
2022-10-13T19:49:48.514Z,70.31
2022-10-13T19:52:17.626Z,70.95
2022-10-13T19:54:46.707Z,70.50
2022-10-13T19:57:16.052Z,71.57
2022-10-13T19:59:47.640Z,71.38
2022-10-13T20:02:18.589Z,70.96
2022-10-13T20:04:48.431Z,71.64
2022-10-13T20:07:17.718Z,71.98
2022-10-13T20:09:46.895Z,72.94
2022-10-13T20:12:16.290Z,72.74
2022-10-13T20:14:50.354Z,72.59
2022-10-13T20:17:20.928Z,71.97
2022-10-13T20:19:50.411Z,72.06
2022-10-13T20:22:19.413Z,71.92
2022-10-13T20:24:49.199Z,72.15
2022-10-13T20:27:18.820Z,72.87
2022-10-13T20:29:48.217Z,72.67
2022-10-13T20:32:17.480Z,72.71
2022-10-13T20:34:48.169Z,72.04
2022-10-13T20:37:17.525Z,73.64
2022-10-13T20:39:48.800Z,72.49
2022-10-13T20:42:17.954Z,72.26
2022-10-13T20:44:47.223Z,72.56
2022-10-13T20:47:16.249Z,71.82
2022-10-13T20:49:45.318Z,72.23
2022-10-13T20:52:19.111Z,72.05
2022-10-13T20:54:50.351Z,72.24
2022-10-13T20:57:19.747Z,72.21
2022-10-13T20:59:51.138Z,72.02
2022-10-13T21:02:21.166Z,72.05
2022-10-13T21:04:51.508Z,71.69
2022-10-13T21:07:22.216Z,71.60
2022-10-13T21:09:53.976Z,71.88
2022-10-13T21:12:23.198Z,71.94
2022-10-13T21:14:52.521Z,71.13
2022-10-13T21:17:22.077Z,71.53
2022-10-13T21:19:51.653Z,71.66
2022-10-13T21:22:22.227Z,70.86
2022-10-13T21:24:51.565Z,71.44
2022-10-13T21:27:20.732Z,71.41
2022-10-13T21:29:50.212Z,71.28
2022-10-13T21:32:19.485Z,71.16
2022-10-13T21:34:50.027Z,70.66
2022-10-13T21:37:22.683Z,71.04
2022-10-13T21:39:53.447Z,70.52
2022-10-13T21:42:22.451Z,70.63
2022-10-13T21:44:52.068Z,70.87
2022-10-13T21:47:21.573Z,72.08
2022-10-13T21:49:50.964Z,72.65
2022-10-13T21:52:21.623Z,73.10
2022-10-13T21:54:51.430Z,72.70
2022-10-13T21:57:21.732Z,72.50
2022-10-13T21:59:51.028Z,72.32
2022-10-13T22:02:20.234Z,72.52
2022-10-13T22:04:51.063Z,72.89
2022-10-13T22:07:21.752Z,72.31
2022-10-13T22:09:51.361Z,72.80
2022-10-13T22:12:20.480Z,72.90
2022-10-13T22:14:49.690Z,72.89
2022-10-13T22:17:23.756Z,73.48
2022-10-13T22:19:53.186Z,73.55
2022-10-13T22:22:26.391Z,73.06
2022-10-13T22:24:59.425Z,72.44
2022-10-13T22:27:33.846Z,72.85
2022-10-13T22:30:03.077Z,72.95
2022-10-13T22:32:32.103Z,73.40
2022-10-13T22:35:01.207Z,73.31
2022-10-13T22:37:32.009Z,73.22
2022-10-13T22:40:01.045Z,73.56
2022-10-13T22:42:30.123Z,72.91
2022-10-13T22:45:00.130Z,71.71
2022-10-13T22:47:29.628Z,72.70
2022-10-13T22:49:58.730Z,73.11
2022-10-13T22:52:28.247Z,72.53
2022-10-13T22:54:58.685Z,72.92
2022-10-13T22:57:27.746Z,73.29
2022-10-13T22:59:57.867Z,72.70
2022-10-13T23:02:27.262Z,72.90
2022-10-13T23:04:56.475Z,73.13
2022-10-13T23:07:25.815Z,73.46
2022-10-13T23:09:54.986Z,73.55
2022-10-13T23:12:25.597Z,74.00
2022-10-13T23:14:55.216Z,73.82
2022-10-13T23:17:24.766Z,73.52
2022-10-13T23:19:54.581Z,73.67
2022-10-13T23:22:23.918Z,73.46
2022-10-13T23:24:53.175Z,73.29
2022-10-13T23:27:22.444Z,73.32
2022-10-13T23:29:53.513Z,73.51
2022-10-13T23:32:27.283Z,73.75
2022-10-13T23:34:56.610Z,73.59
2022-10-13T23:37:31.405Z,73.35
2022-10-13T23:40:01.013Z,72.94
2022-10-13T23:42:30.106Z,73.42
2022-10-13T23:45:00.880Z,73.46
2022-10-13T23:47:30.050Z,73.17
2022-10-13T23:49:59.241Z,73.51
2022-10-13T23:52:28.539Z,72.36
2022-10-13T23:54:57.631Z,72.74
2022-10-13T23:57:31.440Z,72.45
